Fort Apache, Arizona
Current Conditions -  °F | °C
As of 3:55 AM on Sunday 23 Nov 2014 (Local Time) from KSOW Reporting Station
Clear Clear  
Wind Chill: 25°   Ceiling: Unl
Heat Index: 36°   Visibility: 10mi
Dew Point: 18°   Wind: 20mph
Humidity: 48%   Direction: 200°SSW
Pressure: 29.98"   Gusts: 24mph
Location:  33.79°N, 109.99°W
Report Text: KSOW 231055Z AUTO 20017G21KT 10SM CLR 02/M08 A2998 RMK AO2
Loading
Personal Weather Stations






























Interactive Weather Map New forecast layout! Learn more

10-Day Weather Forecast

Advertisements
Track Severe Weather on mobile